sensor_id;sensor_type;location;lat;lon;timestamp;P1;durP1;ratioP1;P2;durP2;ratioP2
5869;SDS011;2961;47.702;9.410;2023-02-23T00:01:09;31.37;;;18.47;;
5869;SDS011;2961;47.702;9.410;2023-02-23T00:03:37;27.10;;;16.67;;
5869;SDS011;2961;47.702;9.410;2023-02-23T00:06:04;25.57;;;16.40;;
5869;SDS011;2961;47.702;9.410;2023-02-23T00:08:31;29.03;;;17.43;;
5869;SDS011;2961;47.702;9.410;2023-02-23T00:11:00;28.70;;;18.73;;
5869;SDS011;2961;47.702;9.410;2023-02-23T00:13:27;27.20;;;18.40;;
5869;SDS011;2961;47.702;9.410;2023-02-23T00:15:55;26.43;;;16.30;;
5869;SDS011;2961;47.702;9.410;2023-02-23T00:18:22;28.03;;;16.93;;
5869;SDS011;2961;47.702;9.410;2023-02-23T00:20:53;28.80;;;18.63;;
5869;SDS011;2961;47.702;9.410;2023-02-23T00:23:21;30.63;;;16.80;;
5869;SDS011;2961;47.702;9.410;2023-02-23T00:25:48;32.57;;;19.70;;
5869;SDS011;2961;47.702;9.410;2023-02-23T00:28:15;29.70;;;17.83;;
5869;SDS011;2961;47.702;9.410;2023-02-23T00:30:41;32.77;;;18.90;;
5869;SDS011;2961;47.702;9.410;2023-02-23T00:33:11;32.60;;;20.20;;
5869;SDS011;2961;47.702;9.410;2023-02-23T00:35:38;33.80;;;20.50;;
5869;SDS011;2961;47.702;9.410;2023-02-23T00:38:06;36.37;;;21.83;;
5869;SDS011;2961;47.702;9.410;2023-02-23T00:40:33;38.07;;;22.57;;
5869;SDS011;2961;47.702;9.410;2023-02-23T00:43:00;39.13;;;23.73;;
5869;SDS011;2961;47.702;9.410;2023-02-23T00:45:27;33.23;;;21.30;;
5869;SDS011;2961;47.702;9.410;2023-02-23T00:47:54;34.50;;;21.30;;
5869;SDS011;2961;47.702;9.410;2023-02-23T00:50:22;36.27;;;21.73;;
5869;SDS011;2961;47.702;9.410;2023-02-23T00:52:49;37.80;;;21.67;;
5869;SDS011;2961;47.702;9.410;2023-02-23T00:55:16;34.53;;;20.70;;
5869;SDS011;2961;47.702;9.410;2023-02-23T00:57:43;33.60;;;21.60;;
5869;SDS011;2961;47.702;9.410;2023-02-23T01:00:10;33.97;;;20.53;;
5869;SDS011;2961;47.702;9.410;2023-02-23T01:02:44;30.00;;;19.63;;
5869;SDS011;2961;47.702;9.410;2023-02-23T01:05:11;30.50;;;20.30;;
5869;SDS011;2961;47.702;9.410;2023-02-23T01:07:39;30.70;;;19.70;;
5869;SDS011;2961;47.702;9.410;2023-02-23T01:10:06;41.20;;;22.40;;
5869;SDS011;2961;47.702;9.410;2023-02-23T01:12:44;38.03;;;21.20;;
5869;SDS011;2961;47.702;9.410;2023-02-23T01:15:12;34.83;;;21.03;;
5869;SDS011;2961;47.702;9.410;2023-02-23T01:17:39;38.73;;;22.13;;
5869;SDS011;2961;47.702;9.410;2023-02-23T01:20:07;34.00;;;20.47;;
5869;SDS011;2961;47.702;9.410;2023-02-23T01:22:41;32.43;;;21.27;;
5869;SDS011;2961;47.702;9.410;2023-02-23T01:25:08;39.30;;;22.47;;
5869;SDS011;2961;47.702;9.410;2023-02-23T01:27:36;36.03;;;21.13;;
5869;SDS011;2961;47.702;9.410;2023-02-23T01:30:04;38.10;;;23.20;;
5869;SDS011;2961;47.702;9.410;2023-02-23T01:32:33;43.30;;;24.00;;
5869;SDS011;2961;47.702;9.410;2023-02-23T01:35:00;45.87;;;27.23;;
5869;SDS011;2961;47.702;9.410;2023-02-23T01:37:28;44.03;;;27.17;;
5869;SDS011;2961;47.702;9.410;2023-02-23T01:39:56;45.27;;;25.67;;
5869;SDS011;2961;47.702;9.410;2023-02-23T01:42:23;42.17;;;23.33;;
5869;SDS011;2961;47.702;9.410;2023-02-23T01:47:48;44.40;;;25.50;;
5869;SDS011;2961;47.702;9.410;2023-02-23T01:50:16;41.57;;;23.97;;
5869;SDS011;2961;47.702;9.410;2023-02-23T01:52:44;39.37;;;22.80;;
5869;SDS011;2961;47.702;9.410;2023-02-23T01:55:16;52.00;;;24.63;;
5869;SDS011;2961;47.702;9.410;2023-02-23T01:57:48;51.67;;;28.17;;
5869;SDS011;2961;47.702;9.410;2023-02-23T02:00:18;45.10;;;27.30;;
5869;SDS011;2961;47.702;9.410;2023-02-23T02:02:49;50.57;;;28.37;;
5869;SDS011;2961;47.702;9.410;2023-02-23T02:05:17;47.40;;;25.83;;
5869;SDS011;2961;47.702;9.410;2023-02-23T02:07:45;51.13;;;27.87;;
5869;SDS011;2961;47.702;9.410;2023-02-23T02:10:14;47.20;;;27.43;;
5869;SDS011;2961;47.702;9.410;2023-02-23T02:13:03;51.77;;;27.50;;
5869;SDS011;2961;47.702;9.410;2023-02-23T02:15:31;48.10;;;27.90;;
5869;SDS011;2961;47.702;9.410;2023-02-23T02:18:03;46.23;;;27.27;;
5869;SDS011;2961;47.702;9.410;2023-02-23T02:20:56;50.23;;;28.07;;
5869;SDS011;2961;47.702;9.410;2023-02-23T02:26:52;48.80;;;27.57;;
5869;SDS011;2961;47.702;9.410;2023-02-23T02:29:35;44.07;;;26.73;;
5869;SDS011;2961;47.702;9.410;2023-02-23T02:38:46;53.47;;;28.67;;
5869;SDS011;2961;47.702;9.410;2023-02-23T02:41:19;50.10;;;28.60;;
5869;SDS011;2961;47.702;9.410;2023-02-23T02:43:59;54.33;;;29.47;;
5869;SDS011;2961;47.702;9.410;2023-02-23T02:46:35;48.50;;;27.90;;
5869;SDS011;2961;47.702;9.410;2023-02-23T02:49:05;48.57;;;28.20;;
5869;SDS011;2961;47.702;9.410;2023-02-23T02:51:42;51.43;;;27.27;;
5869;SDS011;2961;47.702;9.410;2023-02-23T02:54:17;49.63;;;29.93;;
5869;SDS011;2961;47.702;9.410;2023-02-23T02:56:48;52.13;;;30.10;;
5869;SDS011;2961;47.702;9.410;2023-02-23T02:59:18;58.97;;;31.40;;
5869;SDS011;2961;47.702;9.410;2023-02-23T03:02:03;58.33;;;28.60;;
5869;SDS011;2961;47.702;9.410;2023-02-23T03:04:48;46.80;;;28.90;;
5869;SDS011;2961;47.702;9.410;2023-02-23T03:07:33;45.33;;;26.90;;
5869;SDS011;2961;47.702;9.410;2023-02-23T03:10:27;61.87;;;31.87;;
5869;SDS011;2961;47.702;9.410;2023-02-23T03:13:22;54.43;;;29.20;;
5869;SDS011;2961;47.702;9.410;2023-02-23T03:16:17;54.27;;;31.63;;
5869;SDS011;2961;47.702;9.410;2023-02-23T03:19:12;58.83;;;32.80;;
5869;SDS011;2961;47.702;9.410;2023-02-23T03:22:03;60.80;;;32.60;;
5869;SDS011;2961;47.702;9.410;2023-02-23T03:24:55;64.57;;;32.10;;
5869;SDS011;2961;47.702;9.410;2023-02-23T03:27:47;60.17;;;31.53;;
5869;SDS011;2961;47.702;9.410;2023-02-23T03:30:37;60.43;;;33.23;;
5869;SDS011;2961;47.702;9.410;2023-02-23T03:33:31;63.03;;;33.87;;
5869;SDS011;2961;47.702;9.410;2023-02-23T03:36:20;62.50;;;34.33;;
5869;SDS011;2961;47.702;9.410;2023-02-23T03:39:10;59.73;;;33.97;;
5869;SDS011;2961;47.702;9.410;2023-02-23T03:42:01;62.83;;;34.20;;
5869;SDS011;2961;47.702;9.410;2023-02-23T03:44:51;61.10;;;33.17;;
5869;SDS011;2961;47.702;9.410;2023-02-23T03:47:38;55.40;;;31.80;;
5869;SDS011;2961;47.702;9.410;2023-02-23T03:50:26;51.27;;;30.33;;
5869;SDS011;2961;47.702;9.410;2023-02-23T03:53:16;65.03;;;33.00;;
5869;SDS011;2961;47.702;9.410;2023-02-23T03:56:07;63.03;;;32.07;;
5869;SDS011;2961;47.702;9.410;2023-02-23T03:58:56;53.63;;;29.00;;
5869;SDS011;2961;47.702;9.410;2023-02-23T04:01:45;66.07;;;32.20;;
5869;SDS011;2961;47.702;9.410;2023-02-23T04:04:31;67.70;;;35.87;;
5869;SDS011;2961;47.702;9.410;2023-02-23T04:07:17;79.33;;;39.20;;
5869;SDS011;2961;47.702;9.410;2023-02-23T04:10:03;86.90;;;40.23;;
5869;SDS011;2961;47.702;9.410;2023-02-23T04:12:50;81.10;;;40.10;;
5869;SDS011;2961;47.702;9.410;2023-02-23T04:15:40;84.63;;;42.87;;
5869;SDS011;2961;47.702;9.410;2023-02-23T04:18:15;85.83;;;41.93;;
5869;SDS011;2961;47.702;9.410;2023-02-23T04:20:43;89.53;;;43.80;;
5869;SDS011;2961;47.702;9.410;2023-02-23T04:23:09;88.20;;;41.57;;
5869;SDS011;2961;47.702;9.410;2023-02-23T04:25:36;81.27;;;43.37;;
5869;SDS011;2961;47.702;9.410;2023-02-23T04:28:03;86.50;;;42.07;;
5869;SDS011;2961;47.702;9.410;2023-02-23T04:30:30;90.40;;;41.53;;
5869;SDS011;2961;47.702;9.410;2023-02-23T04:32:57;90.03;;;44.33;;
5869;SDS011;2961;47.702;9.410;2023-02-23T04:35:26;81.53;;;42.83;;
5869;SDS011;2961;47.702;9.410;2023-02-23T04:37:55;76.20;;;41.90;;
5869;SDS011;2961;47.702;9.410;2023-02-23T04:40:22;84.90;;;41.97;;
5869;SDS011;2961;47.702;9.410;2023-02-23T04:42:49;74.77;;;39.90;;
5869;SDS011;2961;47.702;9.410;2023-02-23T04:45:16;91.63;;;46.00;;
5869;SDS011;2961;47.702;9.410;2023-02-23T04:47:42;81.47;;;41.77;;
5869;SDS011;2961;47.702;9.410;2023-02-23T04:50:10;82.43;;;39.50;;
5869;SDS011;2961;47.702;9.410;2023-02-23T04:52:38;83.13;;;40.00;;
5869;SDS011;2961;47.702;9.410;2023-02-23T04:55:06;81.63;;;41.27;;
5869;SDS011;2961;47.702;9.410;2023-02-23T04:57:33;80.90;;;42.97;;
5869;SDS011;2961;47.702;9.410;2023-02-23T05:00:00;71.77;;;40.37;;
5869;SDS011;2961;47.702;9.410;2023-02-23T05:02:28;87.50;;;43.90;;
5869;SDS011;2961;47.702;9.410;2023-02-23T05:04:56;93.40;;;45.00;;
5869;SDS011;2961;47.702;9.410;2023-02-23T05:07:22;97.60;;;47.10;;
5869;SDS011;2961;47.702;9.410;2023-02-23T05:09:50;103.13;;;46.97;;
5869;SDS011;2961;47.702;9.410;2023-02-23T05:12:17;85.37;;;44.90;;
5869;SDS011;2961;47.702;9.410;2023-02-23T05:14:44;86.10;;;42.13;;
5869;SDS011;2961;47.702;9.410;2023-02-23T05:17:11;93.07;;;44.90;;
5869;SDS011;2961;47.702;9.410;2023-02-23T05:19:38;77.37;;;39.97;;
5869;SDS011;2961;47.702;9.410;2023-02-23T05:22:05;85.30;;;41.20;;
5869;SDS011;2961;47.702;9.410;2023-02-23T05:24:36;81.80;;;41.87;;
5869;SDS011;2961;47.702;9.410;2023-02-23T05:27:04;83.87;;;41.37;;
5869;SDS011;2961;47.702;9.410;2023-02-23T05:29:31;92.60;;;46.10;;
5869;SDS011;2961;47.702;9.410;2023-02-23T05:31:58;105.43;;;48.50;;
5869;SDS011;2961;47.702;9.410;2023-02-23T05:34:25;86.03;;;44.20;;
5869;SDS011;2961;47.702;9.410;2023-02-23T05:36:52;93.40;;;44.83;;
5869;SDS011;2961;47.702;9.410;2023-02-23T05:39:19;92.90;;;46.77;;
5869;SDS011;2961;47.702;9.410;2023-02-23T05:41:46;83.53;;;43.03;;
5869;SDS011;2961;47.702;9.410;2023-02-23T05:44:14;90.50;;;43.37;;
5869;SDS011;2961;47.702;9.410;2023-02-23T05:46:41;99.20;;;44.37;;
5869;SDS011;2961;47.702;9.410;2023-02-23T05:49:09;78.00;;;39.53;;
5869;SDS011;2961;47.702;9.410;2023-02-23T05:51:36;90.10;;;43.07;;
5869;SDS011;2961;47.702;9.410;2023-02-23T05:54:03;82.87;;;40.97;;
5869;SDS011;2961;47.702;9.410;2023-02-23T05:56:31;107.60;;;44.60;;
5869;SDS011;2961;47.702;9.410;2023-02-23T05:58:58;97.27;;;45.47;;
5869;SDS011;2961;47.702;9.410;2023-02-23T06:01:27;87.40;;;45.87;;
5869;SDS011;2961;47.702;9.410;2023-02-23T06:03:54;83.47;;;42.20;;
5869;SDS011;2961;47.702;9.410;2023-02-23T06:06:21;95.80;;;45.50;;
5869;SDS011;2961;47.702;9.410;2023-02-23T06:08:49;91.97;;;42.60;;
5869;SDS011;2961;47.702;9.410;2023-02-23T06:11:16;103.20;;;46.13;;
5869;SDS011;2961;47.702;9.410;2023-02-23T06:13:43;86.43;;;40.40;;
5869;SDS011;2961;47.702;9.410;2023-02-23T06:16:10;96.17;;;42.70;;
5869;SDS011;2961;47.702;9.410;2023-02-23T06:18:38;109.60;;;46.03;;
5869;SDS011;2961;47.702;9.410;2023-02-23T06:21:05;104.37;;;44.37;;
5869;SDS011;2961;47.702;9.410;2023-02-23T06:23:32;101.13;;;43.90;;
5869;SDS011;2961;47.702;9.410;2023-02-23T06:25:59;102.53;;;47.77;;
5869;SDS011;2961;47.702;9.410;2023-02-23T06:28:26;94.90;;;46.70;;
5869;SDS011;2961;47.702;9.410;2023-02-23T06:30:53;103.70;;;47.17;;
5869;SDS011;2961;47.702;9.410;2023-02-23T06:33:21;108.43;;;48.20;;
5869;SDS011;2961;47.702;9.410;2023-02-23T06:35:49;108.63;;;47.80;;
5869;SDS011;2961;47.702;9.410;2023-02-23T06:38:16;101.00;;;47.07;;
5869;SDS011;2961;47.702;9.410;2023-02-23T06:40:44;106.73;;;47.43;;
5869;SDS011;2961;47.702;9.410;2023-02-23T06:43:11;100.43;;;46.27;;
5869;SDS011;2961;47.702;9.410;2023-02-23T06:45:38;101.93;;;47.27;;
5869;SDS011;2961;47.702;9.410;2023-02-23T06:48:05;102.17;;;47.37;;
5869;SDS011;2961;47.702;9.410;2023-02-23T06:50:31;98.07;;;48.50;;
5869;SDS011;2961;47.702;9.410;2023-02-23T06:53:00;109.83;;;50.00;;
5869;SDS011;2961;47.702;9.410;2023-02-23T06:55:27;92.90;;;46.33;;
5869;SDS011;2961;47.702;9.410;2023-02-23T06:57:53;102.03;;;47.10;;
5869;SDS011;2961;47.702;9.410;2023-02-23T07:00:20;106.83;;;47.70;;
5869;SDS011;2961;47.702;9.410;2023-02-23T07:02:48;103.40;;;45.97;;
5869;SDS011;2961;47.702;9.410;2023-02-23T07:05:14;105.70;;;47.27;;
5869;SDS011;2961;47.702;9.410;2023-02-23T07:07:41;92.00;;;43.50;;
5869;SDS011;2961;47.702;9.410;2023-02-23T07:10:11;97.90;;;46.80;;
5869;SDS011;2961;47.702;9.410;2023-02-23T07:12:38;97.17;;;43.50;;
5869;SDS011;2961;47.702;9.410;2023-02-23T07:15:05;93.87;;;41.80;;
5869;SDS011;2961;47.702;9.410;2023-02-23T07:17:32;94.53;;;48.03;;
5869;SDS011;2961;47.702;9.410;2023-02-23T07:19:59;96.07;;;45.67;;
5869;SDS011;2961;47.702;9.410;2023-02-23T07:22:26;100.20;;;49.13;;
5869;SDS011;2961;47.702;9.410;2023-02-23T07:24:54;108.30;;;48.50;;
5869;SDS011;2961;47.702;9.410;2023-02-23T07:27:22;97.23;;;44.17;;
5869;SDS011;2961;47.702;9.410;2023-02-23T07:29:49;112.83;;;51.20;;
5869;SDS011;2961;47.702;9.410;2023-02-23T07:32:16;105.27;;;50.87;;
5869;SDS011;2961;47.702;9.410;2023-02-23T07:34:43;116.03;;;53.53;;
5869;SDS011;2961;47.702;9.410;2023-02-23T07:37:11;108.93;;;50.10;;
5869;SDS011;2961;47.702;9.410;2023-02-23T07:39:38;118.70;;;48.20;;
5869;SDS011;2961;47.702;9.410;2023-02-23T07:42:05;106.80;;;49.70;;
5869;SDS011;2961;47.702;9.410;2023-02-23T07:44:33;108.60;;;50.30;;
5869;SDS011;2961;47.702;9.410;2023-02-23T07:47:00;113.83;;;51.07;;
5869;SDS011;2961;47.702;9.410;2023-02-23T07:49:27;111.87;;;51.40;;
5869;SDS011;2961;47.702;9.410;2023-02-23T07:51:54;99.47;;;47.10;;
5869;SDS011;2961;47.702;9.410;2023-02-23T07:54:21;101.47;;;47.50;;
5869;SDS011;2961;47.702;9.410;2023-02-23T07:56:49;84.70;;;45.40;;
5869;SDS011;2961;47.702;9.410;2023-02-23T07:59:16;100.67;;;47.80;;
5869;SDS011;2961;47.702;9.410;2023-02-23T08:01:44;92.60;;;45.77;;
5869;SDS011;2961;47.702;9.410;2023-02-23T08:04:11;90.43;;;44.27;;
5869;SDS011;2961;47.702;9.410;2023-02-23T08:06:38;85.93;;;43.77;;
5869;SDS011;2961;47.702;9.410;2023-02-23T08:09:05;80.90;;;41.10;;
5869;SDS011;2961;47.702;9.410;2023-02-23T08:11:31;82.63;;;40.63;;
5869;SDS011;2961;47.702;9.410;2023-02-23T08:13:58;77.20;;;40.90;;
5869;SDS011;2961;47.702;9.410;2023-02-23T08:16:25;71.20;;;39.80;;
5869;SDS011;2961;47.702;9.410;2023-02-23T08:18:54;68.13;;;38.70;;
5869;SDS011;2961;47.702;9.410;2023-02-23T08:21:22;71.03;;;37.07;;
5869;SDS011;2961;47.702;9.410;2023-02-23T08:23:49;70.13;;;38.13;;
5869;SDS011;2961;47.702;9.410;2023-02-23T08:26:16;68.77;;;37.27;;
5869;SDS011;2961;47.702;9.410;2023-02-23T08:28:42;60.43;;;35.70;;
5869;SDS011;2961;47.702;9.410;2023-02-23T08:31:10;58.80;;;36.27;;
5869;SDS011;2961;47.702;9.410;2023-02-23T08:33:37;56.00;;;33.23;;
5869;SDS011;2961;47.702;9.410;2023-02-23T08:36:06;61.10;;;32.87;;
5869;SDS011;2961;47.702;9.410;2023-02-23T08:38:33;55.87;;;33.30;;
5869;SDS011;2961;47.702;9.410;2023-02-23T08:41:01;60.60;;;33.60;;
5869;SDS011;2961;47.702;9.410;2023-02-23T08:43:28;60.27;;;31.73;;
5869;SDS011;2961;47.702;9.410;2023-02-23T08:45:55;53.77;;;31.20;;
5869;SDS011;2961;47.702;9.410;2023-02-23T08:48:22;51.43;;;30.97;;
5869;SDS011;2961;47.702;9.410;2023-02-23T08:50:49;48.17;;;30.83;;
5869;SDS011;2961;47.702;9.410;2023-02-23T08:53:22;49.07;;;26.20;;
5869;SDS011;2961;47.702;9.410;2023-02-23T08:55:50;50.63;;;27.73;;
5869;SDS011;2961;47.702;9.410;2023-02-23T08:58:21;43.60;;;26.87;;
5869;SDS011;2961;47.702;9.410;2023-02-23T09:00:48;49.73;;;27.90;;
5869;SDS011;2961;47.702;9.410;2023-02-23T09:03:15;46.60;;;26.53;;
5869;SDS011;2961;47.702;9.410;2023-02-23T09:05:42;45.53;;;28.00;;
5869;SDS011;2961;47.702;9.410;2023-02-23T09:08:09;45.43;;;27.47;;
5869;SDS011;2961;47.702;9.410;2023-02-23T09:10:37;38.17;;;24.73;;
5869;SDS011;2961;47.702;9.410;2023-02-23T09:13:04;40.10;;;24.83;;
5869;SDS011;2961;47.702;9.410;2023-02-23T09:15:31;40.47;;;24.07;;
5869;SDS011;2961;47.702;9.410;2023-02-23T09:17:58;35.67;;;22.17;;
5869;SDS011;2961;47.702;9.410;2023-02-23T09:20:26;37.77;;;21.00;;
5869;SDS011;2961;47.702;9.410;2023-02-23T09:22:53;31.70;;;20.40;;
5869;SDS011;2961;47.702;9.410;2023-02-23T09:25:20;29.13;;;18.70;;
5869;SDS011;2961;47.702;9.410;2023-02-23T09:27:49;27.10;;;19.40;;
5869;SDS011;2961;47.702;9.410;2023-02-23T09:30:17;29.97;;;19.40;;
5869;SDS011;2961;47.702;9.410;2023-02-23T09:32:45;27.43;;;17.97;;
5869;SDS011;2961;47.702;9.410;2023-02-23T09:35:12;26.63;;;17.57;;
5869;SDS011;2961;47.702;9.410;2023-02-23T09:37:41;26.33;;;17.30;;
5869;SDS011;2961;47.702;9.410;2023-02-23T09:40:12;22.23;;;15.30;;
5869;SDS011;2961;47.702;9.410;2023-02-23T09:42:42;21.50;;;14.87;;
5869;SDS011;2961;47.702;9.410;2023-02-23T09:45:18;19.87;;;13.03;;
5869;SDS011;2961;47.702;9.410;2023-02-23T09:47:55;26.47;;;14.77;;
5869;SDS011;2961;47.702;9.410;2023-02-23T09:50:32;25.80;;;13.63;;
5869;SDS011;2961;47.702;9.410;2023-02-23T09:53:02;20.43;;;13.50;;
5869;SDS011;2961;47.702;9.410;2023-02-23T09:55:32;23.80;;;15.20;;
5869;SDS011;2961;47.702;9.410;2023-02-23T09:58:01;26.40;;;15.43;;
5869;SDS011;2961;47.702;9.410;2023-02-23T10:00:35;21.57;;;15.10;;
5869;SDS011;2961;47.702;9.410;2023-02-23T10:03:08;22.60;;;14.70;;
5869;SDS011;2961;47.702;9.410;2023-02-23T10:05:42;22.00;;;14.93;;
5869;SDS011;2961;47.702;9.410;2023-02-23T10:08:24;23.27;;;17.07;;
5869;SDS011;2961;47.702;9.410;2023-02-23T10:11:02;24.80;;;15.73;;
5869;SDS011;2961;47.702;9.410;2023-02-23T10:13:37;23.53;;;16.60;;
5869;SDS011;2961;47.702;9.410;2023-02-23T10:16:14;23.17;;;14.03;;
5869;SDS011;2961;47.702;9.410;2023-02-23T10:18:48;18.43;;;13.40;;
5869;SDS011;2961;47.702;9.410;2023-02-23T10:21:22;25.20;;;16.30;;
5869;SDS011;2961;47.702;9.410;2023-02-23T10:23:59;22.73;;;16.37;;
5869;SDS011;2961;47.702;9.410;2023-02-23T10:26:32;27.73;;;17.77;;
5869;SDS011;2961;47.702;9.410;2023-02-23T10:29:06;19.37;;;14.57;;
5869;SDS011;2961;47.702;9.410;2023-02-23T10:31:47;24.20;;;17.23;;
5869;SDS011;2961;47.702;9.410;2023-02-23T10:34:17;26.57;;;18.50;;
5869;SDS011;2961;47.702;9.410;2023-02-23T10:36:45;27.27;;;16.50;;
5869;SDS011;2961;47.702;9.410;2023-02-23T10:39:16;21.20;;;13.90;;
5869;SDS011;2961;47.702;9.410;2023-02-23T10:41:44;25.40;;;17.47;;
5869;SDS011;2961;47.702;9.410;2023-02-23T10:44:14;25.57;;;16.97;;
5869;SDS011;2961;47.702;9.410;2023-02-23T10:46:45;24.07;;;15.70;;
5869;SDS011;2961;47.702;9.410;2023-02-23T10:49:18;21.33;;;13.70;;
5869;SDS011;2961;47.702;9.410;2023-02-23T10:51:48;20.80;;;15.37;;
5869;SDS011;2961;47.702;9.410;2023-02-23T10:54:33;29.30;;;18.80;;
5869;SDS011;2961;47.702;9.410;2023-02-23T10:57:00;20.93;;;16.47;;
5869;SDS011;2961;47.702;9.410;2023-02-23T10:59:29;29.57;;;16.27;;
5869;SDS011;2961;47.702;9.410;2023-02-23T11:01:58;18.53;;;14.30;;
5869;SDS011;2961;47.702;9.410;2023-02-23T11:04:25;22.93;;;15.93;;
5869;SDS011;2961;47.702;9.410;2023-02-23T11:07:05;27.67;;;16.07;;
5869;SDS011;2961;47.702;9.410;2023-02-23T11:09:34;31.47;;;17.47;;
5869;SDS011;2961;47.702;9.410;2023-02-23T11:12:02;22.83;;;15.60;;
5869;SDS011;2961;47.702;9.410;2023-02-23T11:14:40;26.03;;;15.13;;
5869;SDS011;2961;47.702;9.410;2023-02-23T11:17:20;19.83;;;14.20;;
5869;SDS011;2961;47.702;9.410;2023-02-23T11:19:51;26.10;;;14.50;;
5869;SDS011;2961;47.702;9.410;2023-02-23T11:22:24;20.20;;;14.10;;
5869;SDS011;2961;47.702;9.410;2023-02-23T11:24:55;18.60;;;12.07;;
5869;SDS011;2961;47.702;9.410;2023-02-23T11:27:23;34.90;;;14.50;;
5869;SDS011;2961;47.702;9.410;2023-02-23T11:29:51;22.37;;;13.67;;
5869;SDS011;2961;47.702;9.410;2023-02-23T11:32:25;20.00;;;11.30;;
5869;SDS011;2961;47.702;9.410;2023-02-23T11:35:11;23.53;;;10.17;;
5869;SDS011;2961;47.702;9.410;2023-02-23T11:37:52;22.87;;;11.83;;
5869;SDS011;2961;47.702;9.410;2023-02-23T11:40:20;39.70;;;13.30;;
5869;SDS011;2961;47.702;9.410;2023-02-23T11:42:52;22.67;;;11.50;;
5869;SDS011;2961;47.702;9.410;2023-02-23T11:45:21;22.13;;;11.97;;
5869;SDS011;2961;47.702;9.410;2023-02-23T11:47:52;18.10;;;10.47;;
5869;SDS011;2961;47.702;9.410;2023-02-23T11:50:21;20.63;;;10.90;;
5869;SDS011;2961;47.702;9.410;2023-02-23T11:52:51;19.03;;;11.10;;
5869;SDS011;2961;47.702;9.410;2023-02-23T11:55:22;17.80;;;11.53;;
5869;SDS011;2961;47.702;9.410;2023-02-23T11:57:49;21.17;;;12.10;;
5869;SDS011;2961;47.702;9.410;2023-02-23T12:00:21;19.13;;;10.47;;
5869;SDS011;2961;47.702;9.410;2023-02-23T12:02:53;21.00;;;11.67;;
5869;SDS011;2961;47.702;9.410;2023-02-23T12:05:23;20.17;;;12.77;;
5869;SDS011;2961;47.702;9.410;2023-02-23T12:07:54;15.30;;;9.10;;
5869;SDS011;2961;47.702;9.410;2023-02-23T12:10:27;16.37;;;9.90;;
5869;SDS011;2961;47.702;9.410;2023-02-23T12:15:52;20.00;;;9.30;;
5869;SDS011;2961;47.702;9.410;2023-02-23T12:18:30;12.93;;;8.20;;
5869;SDS011;2961;47.702;9.410;2023-02-23T12:21:11;13.10;;;6.80;;
5869;SDS011;2961;47.702;9.410;2023-02-23T12:23:42;14.67;;;10.50;;
5869;SDS011;2961;47.702;9.410;2023-02-23T12:26:13;17.83;;;10.40;;
5869;SDS011;2961;47.702;9.410;2023-02-23T12:28:46;15.17;;;8.40;;
5869;SDS011;2961;47.702;9.410;2023-02-23T12:31:25;11.30;;;8.20;;
5869;SDS011;2961;47.702;9.410;2023-02-23T12:33:56;11.17;;;7.90;;
5869;SDS011;2961;47.702;9.410;2023-02-23T12:36:30;11.60;;;7.73;;
5869;SDS011;2961;47.702;9.410;2023-02-23T12:39:04;14.20;;;9.10;;
5869;SDS011;2961;47.702;9.410;2023-02-23T12:41:42;15.17;;;8.80;;
5869;SDS011;2961;47.702;9.410;2023-02-23T12:44:13;18.53;;;8.87;;
5869;SDS011;2961;47.702;9.410;2023-02-23T12:46:49;14.10;;;8.83;;
5869;SDS011;2961;47.702;9.410;2023-02-23T12:49:21;16.57;;;8.70;;
5869;SDS011;2961;47.702;9.410;2023-02-23T12:51:56;16.70;;;7.60;;
5869;SDS011;2961;47.702;9.410;2023-02-23T12:54:30;12.37;;;8.40;;
5869;SDS011;2961;47.702;9.410;2023-02-23T12:57:00;22.83;;;8.53;;
5869;SDS011;2961;47.702;9.410;2023-02-23T13:02:29;15.27;;;9.17;;
5869;SDS011;2961;47.702;9.410;2023-02-23T13:05:15;21.70;;;8.97;;
5869;SDS011;2961;47.702;9.410;2023-02-23T13:07:48;12.50;;;8.27;;
5869;SDS011;2961;47.702;9.410;2023-02-23T13:10:25;13.80;;;8.33;;
5869;SDS011;2961;47.702;9.410;2023-02-23T13:13:03;15.57;;;8.43;;
5869;SDS011;2961;47.702;9.410;2023-02-23T13:15:44;12.33;;;7.80;;
5869;SDS011;2961;47.702;9.410;2023-02-23T13:18:19;19.07;;;8.73;;
5869;SDS011;2961;47.702;9.410;2023-02-23T13:20:54;12.37;;;7.17;;
5869;SDS011;2961;47.702;9.410;2023-02-23T13:23:31;15.40;;;8.40;;
5869;SDS011;2961;47.702;9.410;2023-02-23T13:26:03;18.60;;;7.80;;
5869;SDS011;2961;47.702;9.410;2023-02-23T13:28:41;13.00;;;7.00;;
5869;SDS011;2961;47.702;9.410;2023-02-23T13:31:19;14.90;;;7.20;;
5869;SDS011;2961;47.702;9.410;2023-02-23T13:33:49;11.53;;;7.10;;
5869;SDS011;2961;47.702;9.410;2023-02-23T13:36:19;11.70;;;6.30;;
5869;SDS011;2961;47.702;9.410;2023-02-23T13:38:50;14.43;;;7.23;;
5869;SDS011;2961;47.702;9.410;2023-02-23T13:41:35;10.90;;;7.70;;
5869;SDS011;2961;47.702;9.410;2023-02-23T13:44:08;16.47;;;8.13;;
5869;SDS011;2961;47.702;9.410;2023-02-23T13:46:44;10.70;;;7.17;;
5869;SDS011;2961;47.702;9.410;2023-02-23T13:49:18;10.60;;;7.40;;
5869;SDS011;2961;47.702;9.410;2023-02-23T13:51:58;11.20;;;6.77;;
5869;SDS011;2961;47.702;9.410;2023-02-23T13:54:34;12.67;;;6.10;;
5869;SDS011;2961;47.702;9.410;2023-02-23T13:57:01;13.33;;;7.17;;
5869;SDS011;2961;47.702;9.410;2023-02-23T13:59:35;15.73;;;8.25;;
5869;SDS011;2961;47.702;9.410;2023-02-23T14:02:18;16.70;;;7.33;;
5869;SDS011;2961;47.702;9.410;2023-02-23T14:05:00;12.80;;;7.27;;
5869;SDS011;2961;47.702;9.410;2023-02-23T14:07:30;9.53;;;6.77;;
5869;SDS011;2961;47.702;9.410;2023-02-23T14:10:04;9.53;;;6.60;;
5869;SDS011;2961;47.702;9.410;2023-02-23T14:12:33;12.27;;;6.90;;
5869;SDS011;2961;47.702;9.410;2023-02-23T14:21:10;17.90;;;7.30;;
5869;SDS011;2961;47.702;9.410;2023-02-23T14:23:51;11.00;;;6.30;;
5869;SDS011;2961;47.702;9.410;2023-02-23T14:26:37;14.98;;;7.97;;
5869;SDS011;2961;47.702;9.410;2023-02-23T14:29:08;11.90;;;7.90;;
5869;SDS011;2961;47.702;9.410;2023-02-23T14:31:54;14.80;;;6.77;;
5869;SDS011;2961;47.702;9.410;2023-02-23T14:34:41;11.27;;;6.50;;
5869;SDS011;2961;47.702;9.410;2023-02-23T14:37:15;16.33;;;7.20;;
5869;SDS011;2961;47.702;9.410;2023-02-23T14:39:48;13.77;;;7.47;;
5869;SDS011;2961;47.702;9.410;2023-02-23T14:42:19;12.80;;;8.47;;
5869;SDS011;2961;47.702;9.410;2023-02-23T14:44:48;11.77;;;6.97;;
5869;SDS011;2961;47.702;9.410;2023-02-23T14:47:17;12.18;;;8.52;;
5869;SDS011;2961;47.702;9.410;2023-02-23T14:49:46;12.07;;;8.00;;
5869;SDS011;2961;47.702;9.410;2023-02-23T14:52:16;14.73;;;6.80;;
5869;SDS011;2961;47.702;9.410;2023-02-23T14:54:49;11.97;;;6.43;;
5869;SDS011;2961;47.702;9.410;2023-02-23T14:57:18;13.70;;;7.40;;
5869;SDS011;2961;47.702;9.410;2023-02-23T14:59:57;13.07;;;6.63;;
5869;SDS011;2961;47.702;9.410;2023-02-23T15:02:25;8.80;;;6.47;;
5869;SDS011;2961;47.702;9.410;2023-02-23T15:04:54;14.23;;;7.40;;
5869;SDS011;2961;47.702;9.410;2023-02-23T15:07:34;16.43;;;6.60;;
5869;SDS011;2961;47.702;9.410;2023-02-23T15:10:07;10.82;;;7.45;;
5869;SDS011;2961;47.702;9.410;2023-02-23T15:12:36;20.37;;;7.13;;
5869;SDS011;2961;47.702;9.410;2023-02-23T15:15:04;13.50;;;7.13;;
5869;SDS011;2961;47.702;9.410;2023-02-23T15:17:41;16.90;;;7.30;;
5869;SDS011;2961;47.702;9.410;2023-02-23T15:20:12;13.93;;;7.60;;
5869;SDS011;2961;47.702;9.410;2023-02-23T15:22:41;12.00;;;7.13;;
5869;SDS011;2961;47.702;9.410;2023-02-23T15:25:31;16.30;;;7.53;;
5869;SDS011;2961;47.702;9.410;2023-02-23T15:28:08;9.13;;;6.30;;
5869;SDS011;2961;47.702;9.410;2023-02-23T15:30:42;14.10;;;6.80;;
5869;SDS011;2961;47.702;9.410;2023-02-23T15:33:11;13.77;;;7.37;;
5869;SDS011;2961;47.702;9.410;2023-02-23T15:35:41;16.43;;;7.67;;
5869;SDS011;2961;47.702;9.410;2023-02-23T15:38:23;13.13;;;7.30;;
5869;SDS011;2961;47.702;9.410;2023-02-23T15:40:56;12.47;;;7.30;;
5869;SDS011;2961;47.702;9.410;2023-02-23T15:43:26;17.50;;;7.07;;